createdAt,value
2016-11-18T00:00:50.982Z,10.6
2016-11-18T00:01:59.601Z,10.6
2016-11-18T00:03:08.227Z,10.74
2016-11-18T00:04:16.859Z,10.68
2016-11-18T00:05:25.515Z,10.74
2016-11-18T00:06:34.168Z,10.76
2016-11-18T00:07:42.811Z,10.68
2016-11-18T00:08:51.487Z,10.73
2016-11-18T00:10:00.110Z,10.74
2016-11-18T00:11:08.721Z,10.68
2016-11-18T00:12:17.353Z,10.73
2016-11-18T00:13:25.972Z,10.67
2016-11-18T00:14:34.584Z,10.73
2016-11-18T00:15:43.235Z,10.76
2016-11-18T00:16:51.858Z,10.81
2016-11-18T00:18:00.472Z,10.79
2016-11-18T00:19:09.094Z,10.7
2016-11-18T00:20:17.730Z,10.79
2016-11-18T00:21:26.365Z,10.73
2016-11-18T00:22:35.019Z,10.71
2016-11-18T00:23:43.660Z,10.74
2016-11-18T00:24:52.261Z,10.71
2016-11-18T00:26:00.921Z,10.79
2016-11-18T00:27:09.546Z,10.74
2016-11-18T00:28:18.162Z,10.74
2016-11-18T00:29:26.795Z,10.74
2016-11-18T00:30:35.429Z,10.76
2016-11-18T00:31:44.076Z,10.76
2016-11-18T00:32:52.730Z,10.78
2016-11-18T00:34:01.368Z,10.74
2016-11-18T00:35:10.022Z,10.81
2016-11-18T00:36:18.693Z,10.76
2016-11-18T00:37:27.343Z,10.79
2016-11-18T00:38:35.965Z,10.73
2016-11-18T00:39:44.599Z,10.7
2016-11-18T00:40:53.226Z,10.81
2016-11-18T00:42:01.855Z,10.71
2016-11-18T00:43:10.499Z,10.71
2016-11-18T00:44:19.134Z,10.78
2016-11-18T00:45:27.767Z,10.76
2016-11-18T00:46:36.407Z,10.79
2016-11-18T00:47:45.026Z,10.74
2016-11-18T00:48:53.677Z,10.76
2016-11-18T00:50:02.304Z,10.81
2016-11-18T00:51:10.936Z,10.71
2016-11-18T00:52:19.585Z,10.76
2016-11-18T00:53:28.231Z,10.78
2016-11-18T00:54:36.848Z,10.74
2016-11-18T00:55:45.500Z,10.78
2016-11-18T00:56:54.123Z,10.74
2016-11-18T00:58:02.744Z,10.71
2016-11-18T00:59:11.362Z,10.74
2016-11-18T01:00:19.987Z,10.73
2016-11-18T01:01:28.632Z,10.7
2016-11-18T01:02:37.235Z,10.73
2016-11-18T01:03:45.868Z,10.71
2016-11-18T01:04:54.500Z,10.73
2016-11-18T01:06:03.146Z,10.74
2016-11-18T01:07:11.756Z,10.78
2016-11-18T01:08:20.409Z,10.78
2016-11-18T01:09:29.023Z,10.71
2016-11-18T01:10:37.648Z,10.76
2016-11-18T01:11:46.272Z,10.76
2016-11-18T01:12:54.886Z,10.71
2016-11-18T01:14:03.491Z,10.76
2016-11-18T01:15:12.103Z,10.71
2016-11-18T01:16:20.753Z,10.71
2016-11-18T01:17:29.400Z,10.7
2016-11-18T01:18:38.017Z,10.76
2016-11-18T01:19:46.692Z,10.74
2016-11-18T01:20:55.299Z,10.61
2016-11-18T01:22:03.938Z,10.64
2016-11-18T01:23:12.559Z,10.61
2016-11-18T01:24:21.180Z,10.64
2016-11-18T01:25:29.801Z,10.6
2016-11-18T01:26:38.441Z,10.59
2016-11-18T01:27:47.386Z,10.59
2016-11-18T01:28:56.007Z,10.68
2016-11-18T01:30:04.617Z,10.61
2016-11-18T01:31:13.260Z,10.6
2016-11-18T01:32:21.895Z,10.64
2016-11-18T01:33:30.529Z,10.68
2016-11-18T01:34:39.165Z,10.61
2016-11-18T01:35:47.841Z,10.64
2016-11-18T01:36:56.479Z,10.51
2016-11-18T01:38:05.113Z,10.56
2016-11-18T01:39:13.731Z,10.66
2016-11-18T01:40:22.405Z,10.51
2016-11-18T01:41:31.040Z,10.52
2016-11-18T01:42:39.686Z,10.56
2016-11-18T01:43:48.311Z,10.61
2016-11-18T01:44:56.936Z,10.45
2016-11-18T01:46:05.550Z,10.61
2016-11-18T01:47:14.175Z,10.6
2016-11-18T01:48:22.821Z,10.53
2016-11-18T01:49:31.464Z,10.55
2016-11-18T01:50:40.113Z,10.61
2016-11-18T01:51:48.734Z,10.59
2016-11-18T01:52:57.389Z,10.6
2016-11-18T01:54:06.022Z,10.6
2016-11-18T01:55:14.659Z,10.61
2016-11-18T01:56:23.297Z,10.68
2016-11-18T01:57:31.911Z,10.61
2016-11-18T01:58:40.558Z,10.61
2016-11-18T01:59:49.186Z,10.6
2016-11-18T02:00:57.813Z,10.63
2016-11-18T02:02:06.450Z,10.67
2016-11-18T02:03:15.079Z,10.61
2016-11-18T02:04:23.717Z,10.61
2016-11-18T02:05:32.358Z,10.61
2016-11-18T02:06:41.009Z,10.59
2016-11-18T02:07:49.636Z,10.6
2016-11-18T02:08:58.279Z,10.61
2016-11-18T02:10:06.893Z,10.7
2016-11-18T02:11:15.547Z,10.7
2016-11-18T02:12:24.146Z,10.68
2016-11-18T02:13:32.756Z,10.79
2016-11-18T02:14:41.388Z,10.66
2016-11-18T02:15:50.024Z,10.78
2016-11-18T02:16:58.644Z,10.76
2016-11-18T02:18:07.616Z,10.74
2016-11-18T02:19:16.244Z,10.74
2016-11-18T02:20:24.865Z,10.79
2016-11-18T02:21:33.508Z,10.84
2016-11-18T02:22:42.126Z,10.79
2016-11-18T02:23:50.758Z,10.88
2016-11-18T02:24:59.404Z,10.79
2016-11-18T02:26:08.051Z,10.79
2016-11-18T02:27:16.685Z,10.85
2016-11-18T02:28:25.318Z,10.84
2016-11-18T02:29:33.966Z,10.73
2016-11-18T02:30:42.583Z,10.79
2016-11-18T02:31:51.181Z,10.76
2016-11-18T02:32:59.803Z,10.74
2016-11-18T02:34:08.439Z,10.78
2016-11-18T02:35:17.040Z,10.76
2016-11-18T02:36:25.685Z,10.74
2016-11-18T02:37:34.331Z,10.78
2016-11-18T02:38:42.957Z,10.76
2016-11-18T02:39:51.591Z,10.76
2016-11-18T02:41:00.213Z,10.76
2016-11-18T02:42:08.838Z,10.78
2016-11-18T02:43:17.479Z,10.85
2016-11-18T02:44:26.110Z,10.82
2016-11-18T02:45:34.726Z,10.81
2016-11-18T02:46:43.358Z,10.81
2016-11-18T02:47:51.993Z,10.82
2016-11-18T02:49:00.643Z,10.88
2016-11-18T02:50:09.260Z,10.91
2016-11-18T02:51:17.884Z,10.92
2016-11-18T02:52:26.481Z,10.96
2016-11-18T02:53:35.123Z,10.92
2016-11-18T02:54:43.753Z,10.86
2016-11-18T02:55:52.391Z,10.89
2016-11-18T02:57:01.016Z,10.99
2016-11-18T02:58:09.676Z,10.91
2016-11-18T02:59:18.304Z,10.88
2016-11-18T03:00:27.228Z,10.88
2016-11-18T03:01:36.179Z,10.79
2016-11-18T03:02:44.813Z,10.71
2016-11-18T03:03:53.471Z,10.7
2016-11-18T03:05:02.117Z,10.73
2016-11-18T03:06:10.736Z,10.78
2016-11-18T03:07:19.355Z,10.71
2016-11-18T03:08:27.972Z,10.79
2016-11-18T03:09:36.601Z,10.86
2016-11-18T03:10:45.243Z,10.82
2016-11-18T03:11:53.885Z,10.7
2016-11-18T03:13:02.493Z,10.78
2016-11-18T03:14:11.124Z,10.84
2016-11-18T03:15:19.770Z,10.79
2016-11-18T03:16:28.398Z,10.76
2016-11-18T03:17:37.048Z,10.79
2016-11-18T03:18:45.686Z,10.76
2016-11-18T03:19:54.328Z,10.71
2016-11-18T03:21:02.955Z,10.79
2016-11-18T03:22:11.600Z,10.74
2016-11-18T03:23:20.224Z,10.71
2016-11-18T03:24:28.864Z,10.76
2016-11-18T03:25:37.491Z,10.78
2016-11-18T03:26:46.141Z,10.73
2016-11-18T03:27:54.777Z,10.81
2016-11-18T03:29:03.422Z,10.79
2016-11-18T03:30:12.027Z,10.81
2016-11-18T03:31:20.648Z,10.76
2016-11-18T03:32:29.272Z,10.67
2016-11-18T03:33:37.911Z,10.64
2016-11-18T03:34:46.541Z,10.61
2016-11-18T03:35:55.185Z,10.64
2016-11-18T03:37:03.824Z,10.66
2016-11-18T03:38:12.440Z,10.61
2016-11-18T03:39:21.097Z,10.56
2016-11-18T03:40:29.707Z,10.61
2016-11-18T03:41:38.354Z,10.66
2016-11-18T03:42:46.987Z,10.73
2016-11-18T03:43:55.605Z,10.78
2016-11-18T03:45:04.228Z,10.71
2016-11-18T03:46:12.877Z,10.79
2016-11-18T03:47:21.509Z,10.7
2016-11-18T03:48:30.162Z,10.71
2016-11-18T03:49:38.783Z,10.7
2016-11-18T03:50:47.404Z,10.74
2016-11-18T03:51:56.022Z,10.79
2016-11-18T03:53:04.663Z,10.73
2016-11-18T03:54:13.314Z,10.78
2016-11-18T03:55:21.931Z,10.84
2016-11-18T03:56:30.589Z,10.79
2016-11-18T03:57:39.207Z,10.92
2016-11-18T03:58:47.801Z,10.76
2016-11-18T03:59:56.422Z,10.85
2016-11-18T04:01:05.048Z,10.86
2016-11-18T04:02:13.714Z,10.86
2016-11-18T04:03:22.353Z,10.89
2016-11-18T04:04:31.010Z,10.86
2016-11-18T04:05:39.649Z,10.92
2016-11-18T04:06:48.296Z,10.97
2016-11-18T04:07:56.925Z,11.02
2016-11-18T04:09:05.566Z,11.06
2016-11-18T04:10:14.165Z,11.17
2016-11-18T04:11:22.791Z,11.15
2016-11-18T04:12:31.430Z,11.22
2016-11-18T04:13:40.051Z,11.21
2016-11-18T04:14:48.648Z,11.19
2016-11-18T04:15:57.289Z,11.18
2016-11-18T04:17:05.889Z,11.21
2016-11-18T04:18:14.515Z,11.17
2016-11-18T04:19:23.160Z,11.22
2016-11-18T04:20:31.802Z,11.1
2016-11-18T04:21:40.428Z,11.24
2016-11-18T04:22:49.069Z,11.18
2016-11-18T04:23:57.670Z,11.21
2016-11-18T04:25:06.317Z,11.28
2016-11-18T04:26:14.950Z,11.25
2016-11-18T04:27:23.575Z,11.27
2016-11-18T04:28:32.191Z,11.29
2016-11-18T04:29:40.843Z,11.28
2016-11-18T04:30:49.470Z,11.32
2016-11-18T04:31:58.085Z,11.33
2016-11-18T04:33:06.760Z,11.39
2016-11-18T04:34:15.385Z,11.35
2016-11-18T04:35:24.027Z,11.39
2016-11-18T04:36:32.626Z,11.39
2016-11-18T04:37:41.236Z,11.37
2016-11-18T04:38:49.894Z,11.36
2016-11-18T04:39:58.554Z,11.43
2016-11-18T04:41:07.229Z,11.37
2016-11-18T04:42:15.849Z,11.43
2016-11-18T04:43:24.492Z,11.43
2016-11-18T04:44:33.122Z,11.42
2016-11-18T04:45:41.767Z,11.39
2016-11-18T04:46:50.385Z,11.39
2016-11-18T04:47:59.007Z,11.43
2016-11-18T04:49:07.640Z,11.46
2016-11-18T04:50:16.258Z,11.42
2016-11-18T04:51:24.903Z,11.36
2016-11-18T04:52:33.535Z,11.43
2016-11-18T04:53:42.161Z,11.43
2016-11-18T04:54:50.778Z,11.51
2016-11-18T04:55:59.407Z,11.36
2016-11-18T04:57:08.032Z,11.44
2016-11-18T04:58:16.671Z,11.47
2016-11-18T04:59:25.293Z,11.4
2016-11-18T05:00:33.947Z,11.44
2016-11-18T05:01:42.584Z,11.43
2016-11-18T05:02:51.188Z,11.49
2016-11-18T05:03:59.835Z,11.55
2016-11-18T05:05:08.468Z,11.4
2016-11-18T05:06:17.118Z,11.35
2016-11-18T05:07:25.736Z,11.33
2016-11-18T05:08:34.385Z,11.35
2016-11-18T05:09:43.014Z,11.29
2016-11-18T05:10:51.653Z,11.39
2016-11-18T05:12:00.270Z,11.4
2016-11-18T05:13:08.883Z,11.29
2016-11-18T05:14:17.525Z,11.35
2016-11-18T05:15:26.158Z,11.28
2016-11-18T05:16:34.784Z,11.22
2016-11-18T05:17:43.408Z,11.25
2016-11-18T05:18:52.347Z,11.21
2016-11-18T05:20:00.996Z,11.18
2016-11-18T05:21:09.619Z,11.19
2016-11-18T05:22:18.239Z,11.15
2016-11-18T05:23:26.864Z,11.17
2016-11-18T05:24:35.528Z,11.28
2016-11-18T05:25:44.160Z,11.19
2016-11-18T05:26:52.802Z,11.19
2016-11-18T05:28:01.415Z,11.21
2016-11-18T05:29:10.075Z,11.19
2016-11-18T05:30:18.710Z,11.19
2016-11-18T05:31:27.329Z,11.09
2016-11-18T05:32:35.962Z,11.17
2016-11-18T05:33:44.608Z,11.1
2016-11-18T05:34:53.247Z,11.15
2016-11-18T05:36:01.894Z,11.19
2016-11-18T05:37:10.540Z,11.24
2016-11-18T05:38:19.189Z,11.18
2016-11-18T05:39:27.817Z,11.21
2016-11-18T05:40:36.456Z,11.25
2016-11-18T05:41:45.053Z,11.22
2016-11-18T05:42:53.678Z,11.21
2016-11-18T05:44:02.311Z,11.24
2016-11-18T05:45:10.998Z,11.24
2016-11-18T05:46:19.658Z,11.24
2016-11-18T05:47:28.275Z,11.27
2016-11-18T05:48:36.886Z,11.33
2016-11-18T05:49:45.524Z,11.25
2016-11-18T05:50:54.150Z,11.17
2016-11-18T05:52:02.771Z,11.25
2016-11-18T05:53:11.755Z,11.27
2016-11-18T05:54:20.376Z,11.29
2016-11-18T05:55:29.006Z,11.25
2016-11-18T05:56:37.649Z,11.22
2016-11-18T05:57:46.269Z,11.19
2016-11-18T05:58:54.871Z,11.21
2016-11-18T06:00:35.587Z,11.29
2016-11-18T06:01:44.209Z,11.17
2016-11-18T06:02:52.808Z,11.21
2016-11-18T06:04:01.428Z,11.06
2016-11-18T06:05:42.139Z,11.15
2016-11-18T06:06:55.766Z,11.24
2016-11-18T06:08:04.363Z,11.24
2016-11-18T06:09:12.959Z,11.21
2016-11-18T06:10:21.556Z,11.24
2016-11-18T06:11:30.153Z,11.19
2016-11-18T06:12:38.748Z,11.25
2016-11-18T06:13:47.361Z,11.27
2016-11-18T06:14:55.965Z,11.21
2016-11-18T06:16:04.586Z,11.21
2016-11-18T06:17:13.235Z,11.22
2016-11-18T06:18:21.870Z,11.22
2016-11-18T06:19:30.521Z,11.21
2016-11-18T06:20:39.147Z,11.19
2016-11-18T06:21:47.785Z,11.27
2016-11-18T06:22:56.410Z,11.25
2016-11-18T06:24:05.035Z,11.19
2016-11-18T06:25:13.632Z,11.17
2016-11-18T06:26:22.248Z,11.27
2016-11-18T06:27:30.889Z,11.29
2016-11-18T06:28:39.515Z,11.25
2016-11-18T06:29:48.132Z,11.25
2016-11-18T06:30:57.062Z,11.39
2016-11-18T06:32:05.662Z,11.43
2016-11-18T06:33:14.325Z,11.51
2016-11-18T06:34:22.946Z,11.44
2016-11-18T06:35:31.546Z,11.46
2016-11-18T06:36:40.163Z,11.54
2016-11-18T06:37:48.785Z,11.46
2016-11-18T06:38:57.414Z,11.51
2016-11-18T06:40:06.334Z,11.46
2016-11-18T06:41:14.948Z,11.49
2016-11-18T06:42:23.578Z,11.52
2016-11-18T06:43:32.223Z,11.57
2016-11-18T06:44:41.171Z,11.61
2016-11-18T06:45:49.810Z,11.51
2016-11-18T06:46:58.431Z,11.57
2016-11-18T06:48:07.057Z,11.6
2016-11-18T06:49:15.674Z,11.73
2016-11-18T06:50:24.273Z,11.72
2016-11-18T06:51:32.921Z,11.8
2016-11-18T06:52:41.563Z,11.85
2016-11-18T06:53:50.180Z,11.91
2016-11-18T06:54:58.823Z,11.86
2016-11-18T06:56:07.469Z,11.88
2016-11-18T06:57:16.120Z,11.9
2016-11-18T06:58:24.765Z,11.99
2016-11-18T06:59:33.368Z,12.1
2016-11-18T07:00:41.983Z,12.16
2016-11-18T07:01:50.662Z,12.12
2016-11-18T07:02:59.282Z,12.2
2016-11-18T07:04:07.892Z,12.19
2016-11-18T07:05:16.538Z,12.29
2016-11-18T07:06:25.143Z,12.28
2016-11-18T07:07:33.788Z,12.34
2016-11-18T07:08:42.400Z,12.31
2016-11-18T07:09:51.055Z,12.35
2016-11-18T07:10:59.686Z,12.39
2016-11-18T07:12:08.314Z,12.49
2016-11-18T07:13:16.947Z,12.47
2016-11-18T07:14:25.581Z,12.46
2016-11-18T07:15:34.211Z,12.45
2016-11-18T07:16:42.911Z,12.47
2016-11-18T07:17:51.549Z,12.6
2016-11-18T07:19:00.186Z,12.67
2016-11-18T07:20:08.816Z,12.67
2016-11-18T07:21:17.445Z,12.72
2016-11-18T07:22:26.080Z,12.83
2016-11-18T07:23:34.687Z,12.85
2016-11-18T07:24:43.296Z,12.95
2016-11-18T07:25:51.932Z,12.95
2016-11-18T07:27:00.572Z,12.93
2016-11-18T07:28:09.185Z,12.96
2016-11-18T07:29:17.832Z,13.04
2016-11-18T07:30:26.457Z,12.95
2016-11-18T07:31:35.107Z,12.95
2016-11-18T07:32:44.083Z,12.96
2016-11-18T07:33:52.699Z,13.04
2016-11-18T07:35:01.320Z,12.87
2016-11-18T07:36:09.947Z,12.87
2016-11-18T07:37:18.584Z,12.77
2016-11-18T07:38:27.234Z,12.78
2016-11-18T07:39:35.883Z,12.78
2016-11-18T07:40:44.529Z,12.77
2016-11-18T07:41:53.168Z,12.68
2016-11-18T07:43:01.792Z,12.74
2016-11-18T07:44:10.431Z,12.72
2016-11-18T07:45:19.107Z,12.67
2016-11-18T07:46:27.750Z,12.71
2016-11-18T07:47:36.381Z,12.62
2016-11-18T07:48:45.020Z,12.6
2016-11-18T07:49:53.650Z,12.62
2016-11-18T07:51:02.294Z,12.68
2016-11-18T07:52:10.954Z,12.71
2016-11-18T07:53:19.585Z,12.6
2016-11-18T07:54:28.195Z,12.7
2016-11-18T07:55:36.821Z,12.59
2016-11-18T07:56:45.747Z,12.54
2016-11-18T07:57:54.397Z,12.52
2016-11-18T07:59:03.042Z,12.42
2016-11-18T08:00:11.676Z,12.5
2016-11-18T08:01:20.282Z,12.42
2016-11-18T08:02:28.918Z,12.6
2016-11-18T08:03:37.565Z,12.85
2016-11-18T08:04:46.215Z,12.95
2016-11-18T08:05:54.841Z,12.96
2016-11-18T08:07:03.466Z,13.08
2016-11-18T08:08:12.111Z,13.25
2016-11-18T08:09:20.752Z,13.39
2016-11-18T08:10:29.370Z,13.42
2016-11-18T08:11:37.991Z,13.54
2016-11-18T08:12:46.618Z,13.55
2016-11-18T08:13:55.237Z,13.55
2016-11-18T08:15:03.913Z,13.59
2016-11-18T08:16:12.530Z,13.59
2016-11-18T08:17:21.167Z,13.63
2016-11-18T08:18:29.797Z,13.66
2016-11-18T08:19:38.428Z,13.81
2016-11-18T08:20:47.357Z,13.82
2016-11-18T08:21:55.990Z,13.88
2016-11-18T08:23:04.624Z,13.97
2016-11-18T08:24:13.230Z,14.02
2016-11-18T08:25:21.846Z,14.02
2016-11-18T08:26:30.475Z,14.09
2016-11-18T08:27:39.118Z,14.07
2016-11-18T08:28:47.754Z,14.27
2016-11-18T08:29:56.375Z,14.36
2016-11-18T08:31:04.997Z,14.28
2016-11-18T08:32:13.623Z,14.36
2016-11-18T08:33:22.266Z,14.36
2016-11-18T08:34:31.926Z,14.46
2016-11-18T08:35:40.556Z,14.54
2016-11-18T08:36:49.202Z,14.57
2016-11-18T08:37:57.828Z,14.62
2016-11-18T08:39:06.444Z,14.65
2016-11-18T08:40:15.067Z,14.64
2016-11-18T08:41:23.700Z,14.75
2016-11-18T08:42:32.338Z,14.7
2016-11-18T08:43:41.008Z,14.72
2016-11-18T08:44:49.626Z,14.88
2016-11-18T08:45:58.246Z,14.91
2016-11-18T08:47:06.880Z,14.92
2016-11-18T08:48:15.814Z,14.89
2016-11-18T08:49:24.459Z,14.88
2016-11-18T08:50:33.088Z,15.02
2016-11-18T08:51:41.739Z,15.1
2016-11-18T08:52:50.385Z,15.02
2016-11-18T08:53:59.023Z,14.99
2016-11-18T08:55:07.653Z,15.17
2016-11-18T08:56:16.299Z,15.23
2016-11-18T08:57:24.944Z,15.21
2016-11-18T08:58:33.569Z,15.2
2016-11-18T08:59:42.229Z,15.17
2016-11-18T09:00:50.876Z,15.16
2016-11-18T09:01:59.542Z,15.11
2016-11-18T09:03:08.167Z,15.17
2016-11-18T09:04:16.794Z,15.1
2016-11-18T09:05:25.418Z,15.13
2016-11-18T09:06:34.064Z,15.14
2016-11-18T09:07:42.898Z,15.1
2016-11-18T09:08:51.543Z,15.06
2016-11-18T09:10:00.197Z,15.01
2016-11-18T09:11:08.820Z,15.03
2016-11-18T09:12:17.449Z,15.07
2016-11-18T09:13:26.086Z,14.98
2016-11-18T09:14:34.757Z,15.1
2016-11-18T09:15:43.395Z,15.01
2016-11-18T09:16:52.018Z,15.01
2016-11-18T09:18:00.664Z,14.95
2016-11-18T09:19:09.359Z,14.83
2016-11-18T09:20:18.317Z,14.73
2016-11-18T09:21:26.952Z,14.75
2016-11-18T09:22:35.582Z,14.78
2016-11-18T09:23:44.206Z,14.81
2016-11-18T09:24:52.878Z,15.11
2016-11-18T09:26:01.525Z,15.28
2016-11-18T09:27:10.174Z,15.43
2016-11-18T09:28:18.807Z,15.41
2016-11-18T09:29:27.407Z,15.5
2016-11-18T09:30:36.025Z,15.93
2016-11-18T09:31:44.703Z,16.3
2016-11-18T09:32:53.346Z,16.33
2016-11-18T09:34:01.963Z,16.48
2016-11-18T09:35:10.592Z,16.49
2016-11-18T09:36:19.230Z,16.49
2016-11-18T09:37:28.147Z,16.57
2016-11-18T09:38:36.800Z,16.61
2016-11-18T09:39:45.450Z,16.45
2016-11-18T09:40:54.089Z,16.5
2016-11-18T09:42:02.707Z,16.61
2016-11-18T09:43:11.407Z,16.63
2016-11-18T09:44:20.043Z,16.64
2016-11-18T09:45:28.669Z,16.58
2016-11-18T09:46:37.320Z,16.79
2016-11-18T09:47:45.973Z,16.75
2016-11-18T09:48:54.621Z,16.57
2016-11-18T09:50:03.260Z,16.49
2016-11-18T09:51:11.887Z,16.61
2016-11-18T09:52:20.520Z,16.75
2016-11-18T09:53:29.149Z,16.97
2016-11-18T09:54:37.787Z,17.08
2016-11-18T09:55:46.408Z,17.23
2016-11-18T09:56:55.037Z,17.34
2016-11-18T09:58:03.676Z,17.28
2016-11-18T09:59:12.297Z,17.16
2016-11-18T10:00:20.948Z,17.01
2016-11-18T10:01:29.581Z,16.96
2016-11-18T10:02:38.243Z,16.78
2016-11-18T10:03:46.866Z,16.53
2016-11-18T10:04:55.486Z,15.49
2016-11-18T10:06:04.125Z,14.22
2016-11-18T10:07:12.748Z,13.46
2016-11-18T10:08:21.373Z,13.04
2016-11-18T10:09:29.986Z,12.6
2016-11-18T10:10:38.619Z,12.34
2016-11-18T10:11:47.240Z,12.17
2016-11-18T10:12:55.886Z,12.1
2016-11-18T10:14:04.532Z,12.01
2016-11-18T10:15:13.195Z,12.13
2016-11-18T10:16:21.821Z,12.1
2016-11-18T10:17:30.468Z,11.99
2016-11-18T10:18:39.088Z,11.99
2016-11-18T10:19:47.714Z,11.94
2016-11-18T10:20:56.376Z,12.01
2016-11-18T10:22:05.021Z,12.1
2016-11-18T10:23:13.646Z,12.04
2016-11-18T10:24:22.268Z,12.1
2016-11-18T10:25:30.890Z,12.04
2016-11-18T10:26:39.510Z,11.94
2016-11-18T10:27:48.123Z,11.83
2016-11-18T10:28:56.744Z,11.73
2016-11-18T10:30:05.395Z,11.7
2016-11-18T10:31:14.020Z,11.69
2016-11-18T10:32:22.663Z,11.76
2016-11-18T10:33:31.287Z,11.65
2016-11-18T10:34:39.933Z,11.62
2016-11-18T10:35:48.550Z,11.58
2016-11-18T10:36:57.197Z,11.61
2016-11-18T10:38:05.830Z,11.7
2016-11-18T10:39:14.460Z,11.57
2016-11-18T10:40:23.081Z,11.52
2016-11-18T10:41:31.734Z,11.47
2016-11-18T10:42:40.335Z,11.4
2016-11-18T10:43:48.970Z,11.29
2016-11-18T10:44:57.906Z,11.4
2016-11-18T10:46:06.544Z,11.51
2016-11-18T10:47:15.165Z,11.69
2016-11-18T10:48:23.787Z,11.82
2016-11-18T10:49:32.412Z,11.86
2016-11-18T10:50:41.046Z,11.86
2016-11-18T10:51:49.668Z,11.79
2016-11-18T10:52:58.313Z,11.73
2016-11-18T10:54:06.942Z,11.79
2016-11-18T10:55:15.560Z,11.86
2016-11-18T10:56:24.188Z,12.12
2016-11-18T10:57:32.822Z,12.46
2016-11-18T10:58:41.427Z,12.65
2016-11-18T10:59:50.065Z,12.77
2016-11-18T11:00:58.671Z,12.75
2016-11-18T11:02:07.321Z,12.65
2016-11-18T11:03:15.953Z,12.39
2016-11-18T11:04:24.588Z,12.19
2016-11-18T11:05:33.228Z,12.07
2016-11-18T11:06:41.868Z,12.09
2016-11-18T11:07:50.491Z,12.05
2016-11-18T11:08:59.134Z,11.95
2016-11-18T11:10:07.785Z,11.9
2016-11-18T11:11:16.409Z,11.99
2016-11-18T11:12:25.048Z,11.83
2016-11-18T11:13:33.684Z,11.79
2016-11-18T11:14:42.315Z,11.69
2016-11-18T11:15:50.924Z,11.54
2016-11-18T11:16:59.541Z,11.46
2016-11-18T11:18:08.208Z,11.39
2016-11-18T11:19:16.854Z,11.28
2016-11-18T11:20:25.472Z,11.22
2016-11-18T11:21:34.118Z,11.14
2016-11-18T11:22:42.746Z,11.07
2016-11-18T11:23:51.374Z,10.96
2016-11-18T11:24:59.990Z,11.02
2016-11-18T11:26:08.588Z,11.03
2016-11-18T11:27:17.228Z,10.99
2016-11-18T11:28:25.844Z,10.89
2016-11-18T11:29:34.453Z,10.81
2016-11-18T11:30:43.094Z,10.78
2016-11-18T11:31:51.719Z,10.64
2016-11-18T11:33:00.387Z,10.51
2016-11-18T11:34:09.000Z,10.52
2016-11-18T11:35:17.627Z,10.34
2016-11-18T11:36:26.268Z,10.44
2016-11-18T11:37:34.918Z,10.33
2016-11-18T11:38:43.551Z,10.47
2016-11-18T11:39:52.484Z,10.47
2016-11-18T11:41:01.106Z,10.59
2016-11-18T11:42:09.736Z,10.64
2016-11-18T11:43:18.369Z,10.79
2016-11-18T11:44:27.027Z,10.81
2016-11-18T11:45:35.645Z,10.84
2016-11-18T11:46:44.272Z,10.74
2016-11-18T11:47:52.916Z,10.78
2016-11-18T11:49:01.583Z,10.63
2016-11-18T11:50:10.200Z,10.47
2016-11-18T11:51:18.855Z,10.48
2016-11-18T11:52:27.493Z,10.53
2016-11-18T11:53:36.119Z,10.66
2016-11-18T11:54:44.742Z,10.68
2016-11-18T11:55:53.389Z,10.61
2016-11-18T11:57:02.031Z,10.51
2016-11-18T11:58:10.674Z,10.42
2016-11-18T11:59:19.295Z,10.32
2016-11-18T12:00:27.923Z,10.34
2016-11-18T12:01:36.571Z,10.25
2016-11-18T12:02:45.216Z,10.23
2016-11-18T12:03:53.855Z,10.14
2016-11-18T12:05:02.459Z,10.22
2016-11-18T12:06:11.092Z,10.26
2016-11-18T12:07:19.697Z,10.3
2016-11-18T12:08:28.327Z,10.32
2016-11-18T12:09:36.956Z,10.3
2016-11-18T12:10:45.595Z,10.36
2016-11-18T12:11:54.206Z,10.34
2016-11-18T12:13:02.824Z,10.34
2016-11-18T12:14:11.466Z,10.23
2016-11-18T12:15:20.120Z,10.22
2016-11-18T12:16:28.763Z,10.27
2016-11-18T12:17:37.379Z,10.18
2016-11-18T12:18:45.989Z,10.12
2016-11-18T12:19:54.634Z,10.22
2016-11-18T12:21:03.251Z,10.14
2016-11-18T12:22:11.853Z,10.18
2016-11-18T12:23:20.543Z,10.17
2016-11-18T12:24:29.186Z,10.17
2016-11-18T12:25:37.810Z,10.07
2016-11-18T12:26:46.460Z,10.05
2016-11-18T12:27:55.106Z,10.11
2016-11-18T12:29:03.778Z,9.97
2016-11-18T12:30:12.397Z,9.89
2016-11-18T12:31:21.033Z,9.79
2016-11-18T12:32:29.636Z,9.72
2016-11-18T12:33:38.260Z,9.71
2016-11-18T12:34:46.896Z,9.69
2016-11-18T12:35:55.529Z,9.78
2016-11-18T12:37:04.150Z,9.72
2016-11-18T12:38:12.767Z,9.79
2016-11-18T12:39:21.384Z,9.81
2016-11-18T12:40:30.014Z,9.71
2016-11-18T12:41:38.646Z,9.75
2016-11-18T12:42:47.292Z,9.74
2016-11-18T12:43:55.925Z,9.81
2016-11-18T12:45:04.573Z,9.84
2016-11-18T12:46:13.217Z,9.93
2016-11-18T12:47:21.860Z,9.91
2016-11-18T12:48:30.481Z,9.96
2016-11-18T12:49:39.108Z,9.91
2016-11-18T12:50:47.748Z,9.9
2016-11-18T12:51:56.362Z,9.79
2016-11-18T12:53:05.017Z,9.74
2016-11-18T12:54:13.628Z,9.87
2016-11-18T12:55:22.275Z,9.93
2016-11-18T12:56:30.896Z,9.9
2016-11-18T12:57:39.567Z,10.04
2016-11-18T12:58:48.188Z,10.11
2016-11-18T12:59:56.834Z,10.09
2016-11-18T13:01:05.754Z,10.3
2016-11-18T13:02:14.377Z,10.32
2016-11-18T13:03:22.996Z,10.32
2016-11-18T13:04:31.619Z,10.33
2016-11-18T13:05:40.252Z,10.48
2016-11-18T13:06:48.886Z,10.38
2016-11-18T13:07:57.511Z,10.23
2016-11-18T13:09:06.143Z,10.12
2016-11-18T13:10:14.773Z,10.08
2016-11-18T13:11:23.394Z,10.01
2016-11-18T13:12:32.049Z,9.91
2016-11-18T13:13:40.667Z,9.87
2016-11-18T13:14:49.271Z,9.94
2016-11-18T13:15:57.897Z,10.12
2016-11-18T13:17:06.580Z,10.3
2016-11-18T13:18:15.213Z,10.41
2016-11-18T13:19:24.150Z,10.23
2016-11-18T13:20:32.789Z,10.08
2016-11-18T13:21:41.442Z,9.94
2016-11-18T13:22:50.085Z,9.69
2016-11-18T13:23:58.702Z,9.57
2016-11-18T13:25:07.335Z,9.56
2016-11-18T13:26:15.957Z,9.42
2016-11-18T13:27:24.654Z,9.36
2016-11-18T13:28:33.294Z,9.38
2016-11-18T13:29:41.932Z,9.56
2016-11-18T13:30:50.570Z,9.68
2016-11-18T13:31:59.212Z,9.57
2016-11-18T13:33:07.871Z,9.72
2016-11-18T13:34:16.503Z,9.75
2016-11-18T13:35:25.170Z,9.57
2016-11-18T13:36:33.774Z,9.6
2016-11-18T13:37:42.393Z,9.58
2016-11-18T13:38:51.026Z,9.46
2016-11-18T13:39:59.680Z,9.42
2016-11-18T13:41:08.303Z,9.43
2016-11-18T13:42:16.940Z,9.38
2016-11-18T13:43:25.590Z,9.43
2016-11-18T13:44:34.211Z,9.53
2016-11-18T13:45:42.839Z,9.48
2016-11-18T13:46:51.506Z,9.53
2016-11-18T13:48:00.124Z,9.5
2016-11-18T13:49:08.751Z,9.53
2016-11-18T13:50:17.370Z,9.5
2016-11-18T13:51:25.984Z,9.56
2016-11-18T13:52:34.633Z,9.43
2016-11-18T13:53:43.254Z,9.33
2016-11-18T13:54:51.928Z,9.38
2016-11-18T13:56:00.547Z,9.35
2016-11-18T13:57:09.154Z,9.39
2016-11-18T13:58:17.785Z,9.43
2016-11-18T13:59:26.404Z,9.4
2016-11-18T14:00:35.031Z,9.39
2016-11-18T14:01:43.655Z,9.39
2016-11-18T14:02:52.305Z,9.32
2016-11-18T14:04:00.945Z,9.29
2016-11-18T14:05:09.593Z,9.21
2016-11-18T14:06:18.224Z,9.18
2016-11-18T14:07:26.840Z,9.23
2016-11-18T14:08:35.456Z,9.28
2016-11-18T14:09:44.061Z,9.33
2016-11-18T14:10:52.721Z,9.39
2016-11-18T14:12:01.350Z,9.48
2016-11-18T14:13:09.996Z,9.56
2016-11-18T14:14:18.633Z,9.42
2016-11-18T14:15:27.608Z,9.36
2016-11-18T14:16:36.227Z,9.33
2016-11-18T14:17:44.856Z,9.33
2016-11-18T14:18:53.493Z,9.2
2016-11-18T14:20:02.110Z,9.24
2016-11-18T14:21:10.732Z,9.2
2016-11-18T14:22:19.364Z,9.13
2016-11-18T14:23:27.998Z,9.05
2016-11-18T14:24:36.627Z,9.01
2016-11-18T14:25:45.278Z,9.01
2016-11-18T14:26:53.915Z,8.99
2016-11-18T14:28:02.545Z,8.99
2016-11-18T14:29:11.191Z,8.96
2016-11-18T14:30:19.810Z,8.99
2016-11-18T14:31:28.446Z,9.01
2016-11-18T14:32:37.104Z,8.95
2016-11-18T14:33:45.724Z,8.86
2016-11-18T14:34:54.342Z,8.86
2016-11-18T14:36:02.944Z,8.91
2016-11-18T14:37:11.576Z,8.89
2016-11-18T14:38:20.187Z,8.84
2016-11-18T14:39:28.844Z,8.89
2016-11-18T14:40:37.476Z,8.79
2016-11-18T14:41:46.115Z,8.71
2016-11-18T14:42:54.740Z,8.73
2016-11-18T14:44:03.686Z,8.68
2016-11-18T14:45:12.304Z,8.65
2016-11-18T14:46:20.934Z,8.61
2016-11-18T14:47:29.557Z,8.63
2016-11-18T14:48:38.188Z,8.52
2016-11-18T14:49:46.817Z,8.59
2016-11-18T14:50:55.415Z,8.5
2016-11-18T14:52:04.055Z,8.5